Shawnee, OK

6:06 AM CST on February 23, 2017 (GMT -0600)
Shawnee Municipal | | Change Station
Active Advisory: Fire Weather Warning

Elev 1073 ft 35.36 °N, 96.94 °W | Updated 11 minutes ago

Mostly Cloudy
Mostly Cloudy
55 °F
Feels Like 55 °F
N
12
Wind Variable Wind from South

Today
High -- | Low -- °F
--% Chance of Precip.
Yesterday
High -- | Low -- °F
Precip. -- in
Pressure 29.58 in
Visibility 10.0 miles
Clouds Clear
Dew Point 45 °F
Humidity 69%
Rainfall 0.00 in
Snow Depth Not available.
7:04 AM 6:17 PM
Waning Crescent, 11% visible
METAR KSNL 231155Z AUTO 18010KT 10SM CLR 13/07 A2958 RMK AO2 T01260071 10156 20125
Pressure 29.58 in
Visibility 10.0 miles
Clouds Clear
Dew Point 45 °F
Humidity 69%
Rainfall 0.00 in
Snow Depth Not available.
7:04 AM 6:17 PM
Waning Crescent, 11% visible
METAR KSNL 231155Z AUTO 18010KT 10SM CLR 13/07 A2958 RMK AO2 T01260071 10156 20125

Get Your Daily Forecast Email!

Thanks for signing up!

Be on the lookout for a verification email in your inbox.

You'll start receiving the daily forecast at 8 AM.

×

10-Day Weather Forecast

Almanac

Astronomy

Feb. 23, 2017 Rise Set
Actual Time
Civil Twilight
Nautical Twilight
Astronomical Twilight
Moon
Length of Visible Light
Length of Day
Tomorrow will be .
, % of the Moon is Illuminated

Today's Extremes

State Highs State Lows

Community

WunderPhotos

Upload Photos

1,962,540 photos uploaded!

WunderBlog® & News

Nearby

Air Quality

  Air Quality AQ Index Pollutant
Not available.

Snow Depth

Station Depth Elevation

Earthquake Activity

City Distance Mag. Time & Date
Minimum magnitude displayed is 2.5.

Coastal Water Temperatures

Place Temperature

Stations

Nearby Weather Stations

Station Location Temp. Windchill Dew Point Humidity Wind Precip. Elev Updated Type
                   

Watches & Warnings

Fire Weather Warning
Issued: 3:45 AM CST Feb. 23, 2017 – National Weather Service

... Red flag warning in effect from 10 am this morning to 9 PM CST
this evening for windy conditions... warm temperatures and low
relative humidity for central portions of Oklahoma and parts of
western North Texas...

The National Weather Service in Norman has issued a red flag
warning, which is in effect from 10 am this morning to 9 PM CST
this evening. The Fire Weather Watch is no longer in effect.

* Timing... late Thursday morning through Thursday evening.

* Wind... south to southwest 10 to 20 mph, with gusts to 35 mph.

* Humidity... 15 to 30 percent.

* Temperature... mid 80s.

* Impacts... any fires that develop will likely spread rapidly.
Outdoor burning is not recommended.


Precautionary/preparedness actions...

A red flag warning means that critical fire weather conditions
are either occurring now, or will shortly. A combination of
strong winds, low relative humidity, and warm temperatures can
contribute to extreme fire behavior.